Time;durP1;ratioP1;P1;durP2;ratioP2;P2;SDS_P1;SDS_P2;PMS_P1;PMS_P2;Temp;Humidity;BMP_temperature;BMP_pressure;BME280_temperature;BME280_humidity;BME280_pressure;Samples;Min_cycle;Max_cycle;Signal;HPM_P1;HPM_P2
2021/11/13 00:01:10;;;;;;;41.40;24.73;;;5.10;99.90;;;;;;5029361;28;20294;-57
2021/11/13 00:03:36;;;;;;;38.20;23.70;;;5.00;99.90;;;;;;5038268;28;20464;-57
2021/11/13 00:06:01;;;;;;;40.97;24.67;;;5.10;99.90;;;;;;5039944;28;20182;-57
2021/11/13 00:08:27;;;;;;;44.83;24.40;;;5.00;99.90;;;;;;5028692;28;20426;-57
2021/11/13 00:10:53;;;;;;;42.53;23.40;;;5.00;99.90;;;;;;5030943;28;20190;-55
2021/11/13 00:13:21;;;;;;;43.47;26.27;;;5.00;99.90;;;;;;5048690;28;20202;-55
2021/11/13 00:15:47;;;;;;;37.67;23.15;;;5.10;99.90;;;;;;5048219;28;20464;-56
2021/11/13 00:18:13;;;;;;;43.80;24.93;;;5.00;99.90;;;;;;5047070;28;20209;-55
2021/11/13 00:20:38;;;;;;;45.67;25.50;;;5.10;99.90;;;;;;5040642;28;20198;-55
2021/11/13 00:23:04;;;;;;;39.83;24.73;;;5.10;99.90;;;;;;5048963;28;20218;-57
2021/11/13 00:25:30;;;;;;;38.80;23.47;;;5.10;99.90;;;;;;5030115;28;20270;-58
2021/11/13 00:27:56;;;;;;;40.10;24.30;;;5.10;99.90;;;;;;5030063;28;20264;-58
2021/11/13 00:30:21;;;;;;;41.67;23.70;;;5.00;99.90;;;;;;5046588;28;20424;-56
2021/11/13 00:32:48;;;;;;;43.53;24.20;;;5.00;99.90;;;;;;5044729;28;20680;-58
2021/11/13 00:35:14;;;;;;;35.67;21.63;;;5.00;99.90;;;;;;5041322;28;20190;-57
2021/11/13 00:37:39;;;;;;;40.70;23.37;;;5.10;99.90;;;;;;5048343;28;20198;-58
2021/11/13 00:40:07;;;;;;;41.50;25.17;;;5.10;99.90;;;;;;5041196;28;20456;-57
2021/11/13 00:42:33;;;;;;;41.17;24.23;;;5.10;99.90;;;;;;5047783;28;20698;-55
2021/11/13 00:44:59;;;;;;;41.53;23.90;;;5.10;99.90;;;;;;5044932;28;20190;-58
2021/11/13 00:47:24;;;;;;;40.07;24.13;;;5.10;99.90;;;;;;5036826;28;20433;-57
2021/11/13 00:49:50;;;;;;;41.00;23.60;;;5.20;99.90;;;;;;5048105;28;20190;-58
2021/11/13 00:52:16;;;;;;;40.57;23.70;;;5.20;99.90;;;;;;5042432;28;20226;-61
2021/11/13 00:54:41;;;;;;;41.70;25.73;;;5.20;99.90;;;;;;5044470;28;21008;-57
2021/11/13 00:57:08;;;;;;;40.07;25.70;;;5.20;99.90;;;;;;5036967;28;20641;-57
2021/11/13 00:59:35;;;;;;;40.05;23.58;;;5.30;99.90;;;;;;5047337;28;20232;-54
2021/11/13 01:02:00;;;;;;;39.75;24.60;;;5.30;99.90;;;;;;5029309;28;20207;-57
2021/11/13 01:04:26;;;;;;;37.50;25.10;;;5.30;99.90;;;;;;5041503;28;20189;-55
2021/11/13 01:06:52;;;;;;;36.27;23.50;;;5.40;99.90;;;;;;5034992;28;20583;-57
2021/11/13 01:09:18;;;;;;;43.20;25.13;;;5.30;99.90;;;;;;5046972;28;20209;-57
2021/11/13 01:11:43;;;;;;;39.77;25.23;;;5.40;99.90;;;;;;5031068;28;20916;-58
2021/11/13 01:14:09;;;;;;;38.57;24.90;;;5.40;99.90;;;;;;5046540;28;20191;-58
2021/11/13 01:16:35;;;;;;;37.93;23.03;;;5.40;99.90;;;;;;5045635;28;20190;-58
2021/11/13 01:19:01;;;;;;;39.80;23.57;;;5.40;99.90;;;;;;5050796;28;20217;-58
2021/11/13 01:21:27;;;;;;;38.85;23.08;;;5.40;99.90;;;;;;5036218;28;20441;-58
2021/11/13 01:23:53;;;;;;;38.90;22.83;;;5.50;99.90;;;;;;5042739;28;20580;-58
2021/11/13 01:26:19;;;;;;;37.77;23.90;;;5.50;99.90;;;;;;5046619;28;20183;-46
2021/11/13 01:28:45;;;;;;;39.38;22.95;;;5.50;99.90;;;;;;5035628;28;20852;-49
2021/11/13 01:31:14;;;;;;;37.60;24.57;;;5.50;99.90;;;;;;5052939;28;20190;-49
2021/11/13 01:33:40;;;;;;;37.75;22.95;;;5.50;99.90;;;;;;5032765;28;20191;-50
2021/11/13 01:36:06;;;;;;;39.40;24.15;;;5.50;99.90;;;;;;5035549;28;20193;-46
2021/11/13 01:38:32;;;;;;;39.00;23.80;;;5.40;99.90;;;;;;5047223;28;20277;-48
2021/11/13 01:40:58;;;;;;;37.40;24.65;;;5.50;99.90;;;;;;5047208;28;20281;-51
2021/11/13 01:43:24;;;;;;;37.80;23.83;;;5.50;99.90;;;;;;5042062;28;20681;-50
2021/11/13 01:45:50;;;;;;;40.97;25.30;;;5.50;99.90;;;;;;5045078;28;20416;-46
2021/11/13 01:48:16;;;;;;;38.92;24.92;;;5.50;99.90;;;;;;5046394;28;20210;-47
2021/11/13 01:50:45;;;;;;;39.17;24.23;;;5.60;99.90;;;;;;5050659;28;20214;-51
2021/11/13 01:53:12;;;;;;;40.10;25.05;;;5.50;99.90;;;;;;5044111;28;21322;-50
2021/11/13 01:55:39;;;;;;;40.03;23.97;;;5.60;99.90;;;;;;5041832;28;20190;-47
2021/11/13 01:58:06;;;;;;;41.00;23.73;;;5.60;99.90;;;;;;5044825;28;20472;-50
2021/11/13 02:00:35;;;;;;;45.53;25.33;;;5.60;99.90;;;;;;5033169;28;20218;-50
2021/11/13 02:03:02;;;;;;;39.20;24.08;;;5.70;99.90;;;;;;5045345;28;20245;-46
2021/11/13 02:05:28;;;;;;;34.67;21.77;;;5.60;99.90;;;;;;5031576;28;20580;-53
2021/11/13 02:07:54;;;;;;;41.03;25.07;;;5.60;99.90;;;;;;5047940;28;20240;-49
2021/11/13 02:10:21;;;;;;;37.40;23.80;;;5.60;99.90;;;;;;5043200;28;20255;-51
2021/11/13 02:12:46;;;;;;;45.13;26.05;;;5.70;99.90;;;;;;5046100;28;20255;-47
2021/11/13 02:15:13;;;;;;;40.17;22.97;;;5.60;99.90;;;;;;5036787;28;20182;-51
2021/11/13 02:17:40;;;;;;;38.95;24.15;;;5.70;99.90;;;;;;5043867;28;20202;-48
2021/11/13 02:20:16;;;;;;;41.72;24.20;;;5.70;99.90;;;;;;5043507;28;20209;-53
2021/11/13 02:22:41;;;;;;;39.85;24.23;;;5.70;99.90;;;;;;5039470;28;20205;-50
2021/11/13 02:25:07;;;;;;;35.27;23.50;;;5.70;99.90;;;;;;5045669;28;20627;-53
2021/11/13 02:27:33;;;;;;;39.60;22.93;;;5.70;99.90;;;;;;5038156;28;20666;-52
2021/11/13 02:29:58;;;;;;;38.77;23.73;;;5.70;99.90;;;;;;5035955;28;20178;-49
2021/11/13 02:32:24;;;;;;;39.07;24.10;;;5.60;99.90;;;;;;5039907;28;20187;-50
2021/11/13 02:34:49;;;;;;;35.90;22.47;;;5.70;99.90;;;;;;5045116;28;20261;-49
2021/11/13 02:37:15;;;;;;;33.47;22.47;;;5.70;99.90;;;;;;5043615;28;20243;-48
2021/11/13 02:39:43;;;;;;;35.78;21.85;;;5.70;99.90;;;;;;5041644;28;20692;-51
2021/11/13 02:42:09;;;;;;;39.75;24.17;;;5.70;99.90;;;;;;5043320;28;20211;-53
2021/11/13 02:44:35;;;;;;;39.20;23.20;;;5.60;99.90;;;;;;5033096;28;20201;-51
2021/11/13 02:47:02;;;;;;;39.97;22.83;;;5.60;99.90;;;;;;5042668;28;20199;-50
2021/11/13 02:49:28;;;;;;;39.22;22.05;;;5.50;99.90;;;;;;5049983;28;20206;-52
2021/11/13 02:51:54;;;;;;;38.55;23.35;;;5.50;99.90;;;;;;5048394;28;20267;-51
2021/11/13 02:54:19;;;;;;;39.00;23.57;;;5.50;99.90;;;;;;5050188;28;20628;-52
2021/11/13 02:56:47;;;;;;;38.50;21.97;;;5.40;99.90;;;;;;5048575;28;20187;-48
2021/11/13 02:59:13;;;;;;;36.47;22.45;;;5.40;99.90;;;;;;5037174;28;20186;-48
2021/11/13 03:01:39;;;;;;;34.53;21.70;;;5.40;99.90;;;;;;5029884;28;20197;-50
2021/11/13 03:04:04;;;;;;;39.80;24.00;;;5.40;99.90;;;;;;5047938;28;20498;-50
2021/11/13 03:06:30;;;;;;;35.47;22.50;;;5.30;99.90;;;;;;5038185;28;20261;-50
2021/11/13 03:08:56;;;;;;;38.97;22.60;;;5.30;99.90;;;;;;5049685;28;20197;-49
2021/11/13 03:11:22;;;;;;;33.40;21.33;;;5.30;99.90;;;;;;5048372;28;20229;-48
2021/11/13 03:13:50;;;;;;;37.35;23.08;;;5.30;99.90;;;;;;5043408;28;20208;-54
2021/11/13 03:16:17;;;;;;;36.60;21.90;;;5.30;99.90;;;;;;5038250;28;20190;-48
2021/11/13 03:18:43;;;;;;;35.15;20.85;;;5.30;99.90;;;;;;5039689;28;20209;-51
2021/11/13 03:21:08;;;;;;;35.17;20.47;;;5.30;99.90;;;;;;5043840;28;20191;-50
2021/11/13 03:23:40;;;;;;;34.50;20.83;;;5.20;99.90;;;;;;5044235;28;20515;-51
2021/11/13 03:26:10;;;;;;;34.60;20.70;;;5.10;99.90;;;;;;5048426;28;20244;-48
2021/11/13 03:28:38;;;;;;;37.70;20.77;;;5.10;99.90;;;;;;5045736;28;20190;-50
2021/11/13 03:31:05;;;;;;;32.10;19.75;;;5.10;99.90;;;;;;5049138;28;20186;-46
2021/11/13 03:33:32;;;;;;;32.85;20.00;;;5.10;99.90;;;;;;5048582;28;20657;-51
2021/11/13 03:35:59;;;;;;;30.98;18.70;;;5.10;99.90;;;;;;5049480;28;20205;-51
2021/11/13 03:38:25;;;;;;;34.95;18.88;;;5.10;99.90;;;;;;5037636;28;20192;-56
2021/11/13 03:40:51;;;;;;;30.63;19.17;;;5.10;99.90;;;;;;5034010;28;20194;-47
2021/11/13 03:43:17;;;;;;;32.80;20.38;;;5.10;99.90;;;;;;5035025;28;20471;-49
2021/11/13 03:45:45;;;;;;;28.90;17.60;;;5.10;99.90;;;;;;5037105;28;20226;-51
2021/11/13 03:48:11;;;;;;;31.42;18.67;;;5.10;99.90;;;;;;5040710;28;20196;-50
2021/11/13 03:50:37;;;;;;;27.70;16.95;;;5.10;99.90;;;;;;5046117;28;20283;-51
2021/11/13 03:53:05;;;;;;;31.20;17.60;;;5.20;99.90;;;;;;5047110;28;20285;-48
2021/11/13 03:55:32;;;;;;;28.85;17.88;;;5.20;99.90;;;;;;5030300;28;20201;-51
2021/11/13 03:57:58;;;;;;;32.78;17.60;;;5.20;99.90;;;;;;5028879;28;20887;-46
2021/11/13 04:00:25;;;;;;;28.97;16.60;;;5.20;99.90;;;;;;5038323;28;20182;-51
2021/11/13 04:02:51;;;;;;;29.45;18.10;;;5.10;99.90;;;;;;5048749;28;20460;-49
2021/11/13 04:05:18;;;;;;;31.02;17.75;;;5.10;99.90;;;;;;5044017;28;20233;-52
2021/11/13 04:07:43;;;;;;;27.48;17.08;;;5.10;99.90;;;;;;5049127;28;20182;-48
2021/11/13 04:10:11;;;;;;;26.90;16.33;;;5.20;99.90;;;;;;5038905;28;20508;-51
2021/11/13 04:12:36;;;;;;;25.55;16.33;;;5.20;99.90;;;;;;5045220;28;20260;-49
2021/11/13 04:15:03;;;;;;;28.13;15.80;;;5.20;99.90;;;;;;5040255;28;20963;-52
2021/11/13 04:17:29;;;;;;;27.20;16.33;;;5.20;99.90;;;;;;5045196;28;21041;-54
2021/11/13 04:19:56;;;;;;;24.20;15.70;;;5.20;99.90;;;;;;5043899;28;20182;-49
2021/11/13 04:22:21;;;;;;;27.52;16.85;;;5.30;99.90;;;;;;5046669;28;20244;-50
2021/11/13 04:24:48;;;;;;;25.30;15.53;;;5.30;99.90;;;;;;5036640;28;20186;-57
2021/11/13 04:27:17;;;;;;;27.58;16.35;;;5.30;99.90;;;;;;5048980;28;20201;-51
2021/11/13 04:29:43;;;;;;;27.20;15.70;;;5.30;99.90;;;;;;5045043;28;20269;-48
2021/11/13 04:32:10;;;;;;;25.55;16.40;;;5.30;99.90;;;;;;5037052;28;20187;-49
2021/11/13 04:35:02;;;;;;;25.95;15.30;;;5.30;99.90;;;;;;5030442;28;20195;-51
2021/11/13 04:37:29;;;;;;;24.83;14.65;;;5.30;99.90;;;;;;5044652;28;20274;-50
2021/11/13 04:39:55;;;;;;;24.65;15.07;;;5.30;99.90;;;;;;5034671;28;20170;-51
2021/11/13 04:42:21;;;;;;;25.25;15.02;;;5.30;99.90;;;;;;5048546;28;20210;-51
2021/11/13 04:44:48;;;;;;;25.80;14.40;;;5.30;99.90;;;;;;5041393;28;20186;-52
2021/11/13 04:47:14;;;;;;;23.40;14.40;;;5.40;99.90;;;;;;5039262;28;21005;-50
2021/11/13 04:49:40;;;;;;;22.00;13.60;;;5.40;99.90;;;;;;5029870;28;20210;-47
2021/11/13 04:52:07;;;;;;;21.10;13.30;;;5.40;99.90;;;;;;5049298;28;20264;-52
2021/11/13 04:54:33;;;;;;;23.35;13.82;;;5.40;99.90;;;;;;5041744;28;20195;-49
2021/11/13 04:56:59;;;;;;;21.42;13.77;;;5.40;99.90;;;;;;5052363;28;20194;-48
2021/11/13 04:59:25;;;;;;;25.13;13.60;;;5.40;99.90;;;;;;5046645;28;20222;-50
2021/11/13 05:01:51;;;;;;;21.02;14.13;;;5.40;99.90;;;;;;5037404;28;20207;-50
2021/11/13 05:04:17;;;;;;;19.23;12.85;;;5.50;99.90;;;;;;5042097;28;20217;-51
2021/11/13 05:06:43;;;;;;;20.20;12.50;;;5.40;99.90;;;;;;5047891;28;20186;-51
2021/11/13 05:09:08;;;;;;;19.90;12.30;;;5.40;99.90;;;;;;5045253;28;20646;-52
2021/11/13 05:11:34;;;;;;;22.30;13.77;;;5.40;99.90;;;;;;5031637;28;20233;-49
2021/11/13 05:14:00;;;;;;;21.97;13.57;;;5.40;99.90;;;;;;5052065;28;20672;-52
2021/11/13 05:16:25;;;;;;;21.03;12.37;;;5.50;99.90;;;;;;5044576;28;20873;-49
2021/11/13 05:18:51;;;;;;;19.70;12.80;;;5.40;99.90;;;;;;5032318;28;20171;-49
2021/11/13 05:21:16;;;;;;;21.20;12.80;;;5.40;99.90;;;;;;5046161;28;20190;-49
2021/11/13 05:23:42;;;;;;;20.70;13.07;;;5.40;99.90;;;;;;5051966;28;20205;-50
2021/11/13 05:26:08;;;;;;;17.73;12.00;;;5.40;99.90;;;;;;5043291;28;20190;-47
2021/11/13 05:28:34;;;;;;;19.10;11.53;;;5.50;99.90;;;;;;5052038;28;20174;-50
2021/11/13 05:30:59;;;;;;;19.27;11.10;;;5.40;99.90;;;;;;5043499;28;20602;-52
2021/11/13 05:33:26;;;;;;;17.40;11.43;;;5.50;99.90;;;;;;5040772;28;20182;-49
2021/11/13 05:35:52;;;;;;;17.13;11.07;;;5.50;99.90;;;;;;5045191;28;20194;-52
2021/11/13 05:38:19;;;;;;;18.17;10.63;;;5.60;99.90;;;;;;5049151;28;20534;-53
2021/11/13 05:40:44;;;;;;;18.48;9.75;;;5.60;99.90;;;;;;5038010;28;20195;-51
2021/11/13 05:43:11;;;;;;;17.37;11.10;;;5.60;99.90;;;;;;5047746;28;20279;-49
2021/11/13 05:45:36;;;;;;;18.67;11.05;;;5.60;99.90;;;;;;5049737;28;20178;-49
2021/11/13 05:48:02;;;;;;;18.13;10.50;;;5.60;99.90;;;;;;5051123;28;20182;-48
2021/11/13 05:50:28;;;;;;;15.90;10.33;;;5.60;99.90;;;;;;5051570;28;20429;-47
2021/11/13 05:52:53;;;;;;;14.20;10.17;;;5.60;99.90;;;;;;5040874;28;21149;-50
2021/11/13 05:55:23;;;;;;;16.83;11.13;;;5.60;99.90;;;;;;5068109;28;20663;-51
2021/11/13 05:57:49;;;;;;;14.75;9.93;;;5.60;99.90;;;;;;5057685;28;20549;-47
2021/11/13 06:00:17;;;;;;;13.53;9.60;;;5.60;99.90;;;;;;5034522;28;20191;-48
2021/11/13 06:02:43;;;;;;;17.63;10.13;;;5.70;99.90;;;;;;5050694;28;21005;-53
2021/11/13 06:05:09;;;;;;;14.30;10.43;;;5.70;99.90;;;;;;5058358;28;20186;-51
2021/11/13 06:07:35;;;;;;;16.87;10.30;;;5.80;99.90;;;;;;5035955;28;20182;-50
2021/11/13 06:10:01;;;;;;;16.43;10.63;;;5.80;99.90;;;;;;5036504;28;20456;-49
2021/11/13 06:12:27;;;;;;;15.30;10.07;;;5.80;99.90;;;;;;5040783;28;20178;-57
2021/11/13 06:14:52;;;;;;;14.40;9.70;;;5.80;99.90;;;;;;5037081;28;20608;-53
2021/11/13 06:17:18;;;;;;;14.60;9.13;;;5.80;99.90;;;;;;5037373;28;20680;-50
2021/11/13 06:19:44;;;;;;;14.70;10.40;;;5.80;99.90;;;;;;5045908;28;20183;-51
2021/11/13 06:22:09;;;;;;;13.60;9.23;;;5.80;99.90;;;;;;5038583;28;20203;-51
2021/11/13 06:24:35;;;;;;;14.23;8.77;;;5.80;99.90;;;;;;5037382;28;20428;-58
2021/11/13 06:27:01;;;;;;;15.10;9.90;;;5.90;99.90;;;;;;5049896;28;20190;-48
2021/11/13 06:29:26;;;;;;;13.52;9.43;;;5.80;99.90;;;;;;5041683;28;20198;-50
2021/11/13 06:31:52;;;;;;;15.47;9.37;;;5.80;99.90;;;;;;5049293;28;20647;-52
2021/11/13 06:34:18;;;;;;;14.77;8.73;;;5.80;99.90;;;;;;5042757;28;20195;-51
2021/11/13 06:36:43;;;;;;;11.60;8.23;;;5.80;99.90;;;;;;5034574;28;20191;-48
2021/11/13 06:39:09;;;;;;;14.03;9.30;;;5.90;99.90;;;;;;5030720;28;20198;-51
2021/11/13 06:41:34;;;;;;;13.17;8.90;;;5.90;99.90;;;;;;5029672;28;20218;-49
2021/11/13 06:44:00;;;;;;;13.70;8.83;;;5.90;99.90;;;;;;5026969;28;20190;-51
2021/11/13 06:46:27;;;;;;;13.60;9.63;;;5.90;99.90;;;;;;5029270;28;20226;-51
2021/11/13 06:48:52;;;;;;;13.15;9.40;;;6.00;99.90;;;;;;5040312;28;20280;-52
2021/11/13 06:51:19;;;;;;;14.17;8.40;;;5.90;99.90;;;;;;5026140;28;20222;-50
2021/11/13 06:53:45;;;;;;;13.05;9.15;;;6.10;99.90;;;;;;5036547;28;20259;-49
2021/11/13 06:56:11;;;;;;;13.70;9.20;;;6.10;99.90;;;;;;5024553;28;20293;-48
2021/11/13 06:58:37;;;;;;;13.53;9.63;;;6.10;99.90;;;;;;5036401;28;20217;-49
2021/11/13 07:01:03;;;;;;;12.80;9.17;;;6.20;99.90;;;;;;5023775;28;20193;-47
2021/11/13 07:03:29;;;;;;;15.38;8.82;;;6.20;99.90;;;;;;5023850;28;20834;-53
2021/11/13 07:05:55;;;;;;;13.50;9.20;;;6.20;99.90;;;;;;5026118;28;20183;-51
2021/11/13 07:08:20;;;;;;;11.90;8.30;;;6.20;99.90;;;;;;5029210;28;20190;-51
2021/11/13 07:10:51;;;;;;;12.87;9.17;;;6.20;99.90;;;;;;5023224;28;20953;-52
2021/11/13 07:13:17;;;;;;;13.48;8.48;;;6.30;99.90;;;;;;5030797;28;20681;-50
2021/11/13 07:15:45;;;;;;;12.30;7.93;;;6.20;99.90;;;;;;5040858;28;20243;-54
2021/11/13 07:18:11;;;;;;;14.68;9.75;;;6.30;99.90;;;;;;5020981;28;20862;-54
2021/11/13 07:20:36;;;;;;;12.50;8.97;;;6.30;99.90;;;;;;5040295;28;20193;-53
2021/11/13 07:23:03;;;;;;;14.50;9.27;;;6.40;99.90;;;;;;5035476;28;21165;-51
2021/11/13 07:25:29;;;;;;;14.90;9.33;;;6.30;99.90;;;;;;5022118;28;20261;-58
2021/11/13 07:28:00;;;;;;;13.70;9.33;;;6.30;99.90;;;;;;5025261;28;20453;-51
2021/11/13 07:30:28;;;;;;;15.27;9.40;;;6.30;99.90;;;;;;5035077;28;20709;-51
2021/11/13 07:32:54;;;;;;;13.43;8.68;;;6.30;99.90;;;;;;5024449;28;20429;-53
2021/11/13 07:35:20;;;;;;;13.10;9.20;;;6.40;99.90;;;;;;5022040;28;20576;-52
2021/11/13 07:37:45;;;;;;;14.10;9.93;;;6.40;99.90;;;;;;5023340;28;20433;-54
2021/11/13 07:40:12;;;;;;;12.80;8.33;;;6.50;99.90;;;;;;5021985;28;20191;-54
2021/11/13 07:42:38;;;;;;;13.55;8.82;;;6.50;99.90;;;;;;5033121;28;20222;-54
2021/11/13 07:45:07;;;;;;;12.63;9.17;;;6.60;99.90;;;;;;5029892;28;20177;-49
2021/11/13 07:47:32;;;;;;;13.40;9.23;;;6.70;99.90;;;;;;5038746;28;20178;-49
2021/11/13 07:49:58;;;;;;;12.83;9.27;;;6.70;99.90;;;;;;5040368;28;20421;-50
2021/11/13 07:52:23;;;;;;;11.60;8.87;;;6.70;99.90;;;;;;5034689;28;20226;-54
2021/11/13 07:54:49;;;;;;;12.13;8.77;;;6.80;99.90;;;;;;5029498;28;20217;-54
2021/11/13 07:57:15;;;;;;;16.10;9.60;;;6.80;99.90;;;;;;5033151;28;20248;-52
2021/11/13 07:59:40;;;;;;;14.27;9.87;;;6.80;99.90;;;;;;5038164;28;20779;-52
2021/11/13 08:02:06;;;;;;;16.60;10.63;;;6.90;99.90;;;;;;5026816;28;20680;-58
2021/11/13 08:04:31;;;;;;;14.50;9.23;;;7.00;99.90;;;;;;5020612;28;20194;-52
2021/11/13 08:06:57;;;;;;;12.97;9.00;;;7.00;99.90;;;;;;5028431;28;20712;-51
2021/11/13 08:09:22;;;;;;;15.30;9.07;;;7.20;99.90;;;;;;5020365;28;20188;-53
2021/11/13 08:11:48;;;;;;;13.10;9.67;;;7.20;99.90;;;;;;5021592;28;20179;-53
2021/11/13 08:14:14;;;;;;;13.97;9.30;;;7.40;99.90;;;;;;5021890;28;20194;-54
2021/11/13 08:16:39;;;;;;;12.80;8.57;;;7.40;99.90;;;;;;5029312;28;20848;-50
2021/11/13 08:19:05;;;;;;;13.97;10.37;;;7.40;99.90;;;;;;5042005;28;20202;-55
2021/11/13 08:21:31;;;;;;;14.70;9.70;;;7.40;99.90;;;;;;5043816;28;20157;-48
2021/11/13 08:23:58;;;;;;;12.13;8.27;;;7.50;99.90;;;;;;5046765;28;20506;-50
2021/11/13 08:26:24;;;;;;;14.77;10.60;;;7.60;99.90;;;;;;5055174;28;20179;-55
2021/11/13 08:28:49;;;;;;;13.67;9.50;;;7.70;99.90;;;;;;5049307;28;20469;-51
2021/11/13 08:31:15;;;;;;;14.70;9.17;;;7.70;99.90;;;;;;5049490;28;20185;-54
2021/11/13 08:33:40;;;;;;;16.60;9.57;;;7.80;99.90;;;;;;5055283;28;20218;-55
2021/11/13 08:36:06;;;;;;;11.10;7.43;;;7.80;99.90;;;;;;5045543;28;20273;-50
2021/11/13 08:38:31;;;;;;;13.90;9.57;;;8.00;99.90;;;;;;5040546;28;20186;-53
2021/11/13 08:40:58;;;;;;;13.10;8.50;;;8.10;99.90;;;;;;5036844;28;20198;-54
2021/11/13 08:43:24;;;;;;;13.17;9.03;;;8.30;99.90;;;;;;5025792;28;20202;-52
2021/11/13 08:45:51;;;;;;;13.47;9.30;;;8.40;99.90;;;;;;5029547;28;20421;-55
2021/11/13 08:48:17;;;;;;;13.10;8.60;;;8.50;99.90;;;;;;5025390;28;20189;-52
2021/11/13 08:50:43;;;;;;;11.70;8.73;;;8.40;99.90;;;;;;5025347;28;20417;-49
2021/11/13 08:53:10;;;;;;;12.30;9.30;;;8.60;99.90;;;;;;5035698;28;20916;-52
2021/11/13 08:55:38;;;;;;;11.60;8.63;;;8.60;99.90;;;;;;5028529;28;20436;-54
2021/11/13 08:58:04;;;;;;;12.87;8.87;;;8.80;99.90;;;;;;5028032;28;20524;-55
2021/11/13 09:00:45;;;;;;;11.57;8.57;;;8.80;99.90;;;;;;5029379;28;20452;-58
2021/11/13 09:03:18;;;;;;;12.33;9.07;;;9.00;99.90;;;;;;5031189;28;21255;-51
2021/11/13 09:05:44;;;;;;;11.90;8.30;;;9.20;99.90;;;;;;5041690;28;20564;-48
2021/11/13 09:08:09;;;;;;;11.97;9.47;;;9.60;99.90;;;;;;5034978;28;20436;-49
2021/11/13 09:10:36;;;;;;;11.50;8.60;;;9.90;99.90;;;;;;5032372;28;20289;-49
2021/11/13 09:13:02;;;;;;;13.53;9.83;;;10.40;99.90;;;;;;5033404;28;20190;-53
2021/11/13 09:15:30;;;;;;;10.73;9.53;;;10.50;99.90;;;;;;5034102;28;20448;-50
2021/11/13 09:17:56;;;;;;;12.03;8.97;;;10.30;99.90;;;;;;5034682;28;20194;-53
2021/11/13 09:20:23;;;;;;;11.40;9.33;;;10.10;99.90;;;;;;5028379;28;20440;-49
2021/11/13 09:22:49;;;;;;;11.00;9.60;;;10.10;99.90;;;;;;5027542;28;20552;-52
2021/11/13 09:25:15;;;;;;;12.90;9.57;;;10.00;99.90;;;;;;5033893;28;21119;-51
2021/11/13 09:27:44;;;;;;;11.40;9.43;;;9.70;99.90;;;;;;5038873;28;20189;-52
2021/11/13 09:30:21;;;;;;;12.83;9.50;;;9.60;99.90;;;;;;5035684;28;20429;-48
2021/11/13 09:32:47;;;;;;;12.83;9.23;;;9.40;99.90;;;;;;5036856;28;20444;-49
2021/11/13 09:35:15;;;;;;;13.93;10.40;;;9.40;99.90;;;;;;5037515;28;20495;-49
2021/11/13 09:37:43;;;;;;;11.83;9.43;;;9.40;99.90;;;;;;5026601;28;20441;-53
2021/11/13 09:40:10;;;;;;;11.27;9.30;;;9.30;99.90;;;;;;5040401;28;20432;-46
2021/11/13 09:42:36;;;;;;;11.60;8.70;;;9.30;99.90;;;;;;5031681;28;20849;-50
2021/11/13 09:45:05;;;;;;;14.77;11.13;;;9.30;99.90;;;;;;5025370;28;20472;-51
2021/11/13 09:47:34;;;;;;;11.00;8.80;;;9.40;99.90;;;;;;5034459;28;20517;-50
2021/11/13 09:50:00;;;;;;;11.70;9.90;;;9.50;99.90;;;;;;5036144;28;20465;-48
2021/11/13 09:52:26;;;;;;;11.20;8.80;;;9.50;99.90;;;;;;5029968;28;21232;-51
2021/11/13 09:54:52;;;;;;;10.83;8.87;;;9.40;99.90;;;;;;5041326;28;20513;-50
2021/11/13 09:57:17;;;;;;;11.90;9.27;;;9.50;99.90;;;;;;5037094;28;20206;-50
2021/11/13 09:59:43;;;;;;;13.30;9.70;;;9.40;99.90;;;;;;5039160;28;20244;-49
2021/11/13 10:02:08;;;;;;;9.63;8.57;;;9.50;99.90;;;;;;5032547;28;20600;-50
2021/11/13 10:04:34;;;;;;;11.83;9.33;;;9.40;99.90;;;;;;5024575;28;20309;-51
2021/11/13 10:07:00;;;;;;;11.00;9.10;;;9.50;99.90;;;;;;5041790;28;20182;-51
2021/11/13 10:09:25;;;;;;;11.33;9.27;;;9.40;99.90;;;;;;5027976;28;20191;-51
2021/11/13 10:11:52;;;;;;;10.70;8.50;;;9.40;99.90;;;;;;5040399;28;21188;-56
2021/11/13 10:14:36;;;;;;;11.30;9.27;;;9.40;99.90;;;;;;5022437;28;20908;-50
2021/11/13 10:17:15;;;;;;;12.30;9.40;;;9.50;99.90;;;;;;5022992;28;20491;-49
2021/11/13 10:19:40;;;;;;;11.70;9.43;;;9.50;99.90;;;;;;5038736;28;20475;-51
2021/11/13 10:22:06;;;;;;;9.50;8.33;;;9.60;99.90;;;;;;5034003;28;20473;-51
2021/11/13 10:24:32;;;;;;;12.13;9.80;;;9.70;99.90;;;;;;5040096;28;20205;-55
2021/11/13 10:27:04;;;;;;;11.97;9.77;;;9.60;99.90;;;;;;5050207;28;20197;-52
2021/11/13 10:29:38;;;;;;;11.43;10.10;;;9.70;99.90;;;;;;5040491;28;20621;-52
2021/11/13 10:32:08;;;;;;;12.70;11.00;;;9.80;99.90;;;;;;5045715;28;20460;-52
2021/11/13 10:34:38;;;;;;;13.60;9.90;;;9.80;99.90;;;;;;5041817;28;20471;-56
2021/11/13 10:37:10;;;;;;;11.70;9.37;;;9.70;99.90;;;;;;5049403;28;20433;-46
2021/11/13 10:39:39;;;;;;;12.03;9.70;;;9.70;99.90;;;;;;5043015;28;20988;-50
2021/11/13 10:42:13;;;;;;;11.90;9.10;;;9.70;99.90;;;;;;5031189;28;20462;-50
2021/11/13 10:44:47;;;;;;;14.00;10.40;;;9.60;99.90;;;;;;5034296;28;20453;-52
2021/11/13 10:47:23;;;;;;;12.23;10.50;;;9.80;99.90;;;;;;5048661;28;20437;-48
2021/11/13 10:49:52;;;;;;;12.57;10.03;;;9.80;99.90;;;;;;5036324;28;20433;-50
2021/11/13 10:52:20;;;;;;;13.90;10.60;;;9.90;99.90;;;;;;5046925;28;20480;-52
2021/11/13 10:54:48;;;;;;;11.60;10.33;;;10.10;99.90;;;;;;5044109;28;20432;-51
2021/11/13 10:57:27;;;;;;;12.13;9.40;;;10.30;99.90;;;;;;5043465;28;20440;-53
2021/11/13 10:59:53;;;;;;;13.80;9.93;;;10.50;99.90;;;;;;5036357;28;20426;-53
2021/11/13 11:02:19;;;;;;;13.40;11.00;;;10.70;99.90;;;;;;5036707;28;20473;-49
2021/11/13 11:04:46;;;;;;;14.00;11.63;;;10.70;99.90;;;;;;5035909;28;20441;-46
2021/11/13 11:07:24;;;;;;;13.50;10.50;;;10.70;99.90;;;;;;5047866;28;20445;-51
2021/11/13 11:10:00;;;;;;;13.13;11.60;;;10.50;99.90;;;;;;5037285;28;20519;-49
2021/11/13 11:12:32;;;;;;;13.30;10.37;;;10.40;99.90;;;;;;5044080;28;20996;-51
2021/11/13 11:14:59;;;;;;;12.43;10.10;;;10.30;99.90;;;;;;5044282;28;20468;-51
2021/11/13 11:17:27;;;;;;;13.47;10.63;;;10.30;99.90;;;;;;5043119;28;20449;-47
2021/11/13 11:20:00;;;;;;;12.07;10.40;;;10.40;99.90;;;;;;5033814;28;20911;-51
2021/11/13 11:22:29;;;;;;;11.87;10.10;;;10.30;99.90;;;;;;5041732;28;20464;-51
2021/11/13 11:25:07;;;;;;;13.60;10.20;;;10.60;99.90;;;;;;5047274;28;20424;-50
2021/11/13 11:27:41;;;;;;;13.70;10.10;;;10.90;99.90;;;;;;5029551;28;20433;-58
2021/11/13 11:30:22;;;;;;;15.10;11.83;;;11.40;99.90;;;;;;5048357;28;20420;-54
2021/11/13 11:32:51;;;;;;;14.63;11.60;;;11.70;99.90;;;;;;5038023;28;20449;-52
2021/11/13 11:35:23;;;;;;;12.77;11.23;;;12.00;99.90;;;;;;5046425;28;20424;-48
2021/11/13 11:37:54;;;;;;;14.17;12.10;;;12.40;99.40;;;;;;5044211;28;20417;-50
2021/11/13 11:40:27;;;;;;;13.10;11.17;;;12.80;97.70;;;;;;5045397;28;20433;-50
2021/11/13 11:42:52;;;;;;;14.63;11.97;;;13.30;96.40;;;;;;5046676;28;20463;-58
2021/11/13 11:45:21;;;;;;;13.80;12.00;;;13.30;95.80;;;;;;5046158;28;20798;-53
2021/11/13 11:47:49;;;;;;;15.37;12.57;;;13.30;95.60;;;;;;5045769;28;20187;-53
2021/11/13 11:50:16;;;;;;;14.77;12.60;;;13.10;95.20;;;;;;5044372;28;20437;-50
2021/11/13 11:52:44;;;;;;;14.77;11.60;;;12.70;96.20;;;;;;5045055;28;20642;-52
2021/11/13 11:55:11;;;;;;;15.40;12.57;;;12.20;96.50;;;;;;5046721;28;20428;-51
2021/11/13 11:57:40;;;;;;;18.47;13.50;;;11.70;97.70;;;;;;5047432;28;20943;-51
2021/11/13 12:00:10;;;;;;;14.90;12.73;;;11.50;98.20;;;;;;5045451;28;20437;-53
2021/11/13 12:02:39;;;;;;;17.60;13.87;;;11.30;98.70;;;;;;5047499;28;20885;-50
2021/11/13 12:05:11;;;;;;;17.83;13.53;;;11.10;99.30;;;;;;5045158;28;20445;-47
2021/11/13 12:07:39;;;;;;;16.33;12.10;;;10.90;99.80;;;;;;5047181;28;20417;-49
2021/11/13 12:10:14;;;;;;;18.07;12.87;;;10.90;99.90;;;;;;5046418;28;20515;-52
2021/11/13 12:12:59;;;;;;;18.20;13.40;;;10.90;99.90;;;;;;5049396;28;21078;-51
2021/11/13 12:15:27;;;;;;;17.00;13.00;;;10.90;99.90;;;;;;5043771;28;20441;-49
2021/11/13 12:17:57;;;;;;;17.93;13.23;;;10.60;99.90;;;;;;5047738;28;20421;-49
2021/11/13 12:20:29;;;;;;;20.63;14.07;;;10.50;99.90;;;;;;5043678;28;20437;-49
2021/11/13 12:23:02;;;;;;;16.70;14.00;;;10.40;99.90;;;;;;5030964;28;20457;-52
2021/11/13 12:25:34;;;;;;;17.80;13.70;;;10.50;99.90;;;;;;5038450;28;20448;-49
2021/11/13 12:28:16;;;;;;;17.93;14.40;;;10.40;99.90;;;;;;5039311;28;20946;-51
2021/11/13 12:30:46;;;;;;;16.77;13.23;;;10.40;99.90;;;;;;5037070;28;20445;-50
2021/11/13 12:33:27;;;;;;;18.70;13.77;;;10.40;99.90;;;;;;5035789;28;20455;-50
2021/11/13 12:35:59;;;;;;;18.03;14.63;;;10.50;99.90;;;;;;5032333;28;20439;-52
2021/11/13 12:38:38;;;;;;;17.60;13.33;;;10.30;99.90;;;;;;5041103;28;20440;-47